createdAt,value
2023-05-01T00:01:12.337Z,5.43
2023-05-01T00:03:40.042Z,5.80
2023-05-01T00:06:09.109Z,5.88
2023-05-01T00:08:36.799Z,5.70
2023-05-01T00:11:04.780Z,6.22
2023-05-01T00:13:32.411Z,5.20
2023-05-01T00:15:59.940Z,5.43
2023-05-01T00:18:27.455Z,5.65
2023-05-01T00:20:54.925Z,5.90
2023-05-01T00:23:23.802Z,6.05
2023-05-01T00:25:51.297Z,6.07
2023-05-01T00:28:19.263Z,5.55
2023-05-01T00:30:47.172Z,4.93
2023-05-01T00:33:14.737Z,5.18
2023-05-01T00:35:44.884Z,5.50
2023-05-01T00:38:12.615Z,5.28
2023-05-01T00:40:45.153Z,5.03
2023-05-01T00:43:12.962Z,4.78
2023-05-01T00:45:41.281Z,4.45
2023-05-01T00:48:09.006Z,5.40
2023-05-01T00:50:36.690Z,5.63
2023-05-01T00:53:04.267Z,5.32
2023-05-01T00:55:32.447Z,6.00
2023-05-01T00:58:01.535Z,5.53
2023-05-01T01:00:29.589Z,5.10
2023-05-01T01:02:57.268Z,5.07
2023-05-01T01:05:28.327Z,5.28
2023-05-01T01:08:01.474Z,5.20
2023-05-01T01:10:36.992Z,5.35
2023-05-01T01:13:11.704Z,5.55
2023-05-01T01:15:45.591Z,4.05
2023-05-01T01:18:17.917Z,4.70
2023-05-01T01:20:48.030Z,5.15
2023-05-01T01:23:45.320Z,4.65
2023-05-01T01:26:20.429Z,4.90
2023-05-01T01:29:08.642Z,5.60
2023-05-01T01:31:42.065Z,5.15
2023-05-01T01:34:14.505Z,5.15
2023-05-01T01:36:45.090Z,4.80
2023-05-01T01:39:17.387Z,5.40
2023-05-01T01:41:50.770Z,6.00
2023-05-01T01:44:23.484Z,5.60
2023-05-01T01:46:52.363Z,5.00
2023-05-01T01:49:24.366Z,5.32
2023-05-01T01:51:55.150Z,5.93
2023-05-01T01:54:26.230Z,5.88
2023-05-01T01:56:54.461Z,6.22
2023-05-01T01:59:22.781Z,5.65
2023-05-01T02:01:51.235Z,6.25
2023-05-01T02:04:19.287Z,5.53
2023-05-01T02:06:48.984Z,5.80
2023-05-01T02:09:17.709Z,5.57
2023-05-01T02:11:46.408Z,5.70
2023-05-01T02:14:14.499Z,4.97
2023-05-01T02:16:42.900Z,5.43
2023-05-01T02:19:10.580Z,5.25
2023-05-01T02:21:38.255Z,4.70
2023-05-01T02:24:08.316Z,5.43
2023-05-01T02:26:41.657Z,4.88
2023-05-01T02:29:09.352Z,5.25
2023-05-01T02:31:36.980Z,5.15
2023-05-01T02:34:04.461Z,4.85
2023-05-01T02:36:33.338Z,5.03
2023-05-01T02:39:00.872Z,5.70
2023-05-01T02:41:29.741Z,5.30
2023-05-01T02:44:01.574Z,5.57
2023-05-01T02:46:29.247Z,5.88
2023-05-01T02:48:58.388Z,5.35
2023-05-01T02:51:26.230Z,5.50
2023-05-01T02:53:54.066Z,5.97
2023-05-01T02:56:21.792Z,5.55
2023-05-01T02:58:50.567Z,5.70
2023-05-01T03:01:18.120Z,5.65
2023-05-01T03:03:45.701Z,4.93
2023-05-01T03:06:21.417Z,5.63
2023-05-01T03:08:48.923Z,5.10
2023-05-01T03:11:16.536Z,5.25
2023-05-01T03:13:44.663Z,5.30
2023-05-01T03:16:13.492Z,5.25
2023-05-01T03:18:40.995Z,5.30
2023-05-01T03:21:08.895Z,5.45
2023-05-01T03:23:38.303Z,5.25
2023-05-01T03:26:07.726Z,5.43
2023-05-01T03:28:35.216Z,5.38
2023-05-01T03:31:02.716Z,5.72
2023-05-01T03:33:31.656Z,5.50
2023-05-01T03:36:03.674Z,6.03
2023-05-01T03:38:31.623Z,5.70
2023-05-01T03:40:59.283Z,5.68
2023-05-01T03:43:26.887Z,5.25
2023-05-01T03:45:54.450Z,5.05
2023-05-01T03:48:22.222Z,6.05
2023-05-01T03:50:51.035Z,4.95
2023-05-01T03:53:18.574Z,5.72
2023-05-01T03:55:46.082Z,5.15
2023-05-01T03:58:13.545Z,5.28
2023-05-01T04:00:41.669Z,5.65
2023-05-01T04:03:09.254Z,5.35
2023-05-01T04:05:36.843Z,5.57
2023-05-01T04:08:06.335Z,5.70
2023-05-01T04:10:33.820Z,6.05
2023-05-01T04:13:01.470Z,6.57
2023-05-01T04:15:29.050Z,5.60
2023-05-01T04:17:56.861Z,5.85
2023-05-01T04:20:24.445Z,5.57
2023-05-01T04:22:52.076Z,5.85
2023-05-01T04:25:23.125Z,5.60
2023-05-01T04:27:50.969Z,5.65
2023-05-01T04:30:18.486Z,5.75
2023-05-01T04:32:46.196Z,5.47
2023-05-01T04:35:13.840Z,5.93
2023-05-01T04:37:41.339Z,8.27
2023-05-01T04:40:11.594Z,11.05
2023-05-01T04:42:40.734Z,9.73
2023-05-01T04:45:08.815Z,13.82
2023-05-01T04:47:36.308Z,11.38
2023-05-01T04:50:04.295Z,12.75
2023-05-01T04:52:31.818Z,13.18
2023-05-01T04:54:59.317Z,9.40
2023-05-01T04:57:27.057Z,12.60
2023-05-01T04:59:56.137Z,11.13
2023-05-01T05:02:24.232Z,13.70
2023-05-01T05:04:53.828Z,12.65
2023-05-01T05:07:21.414Z,8.65
2023-05-01T05:09:48.931Z,6.93
2023-05-01T05:12:16.464Z,6.95
2023-05-01T05:14:43.994Z,6.82
2023-05-01T05:17:12.791Z,7.22
2023-05-01T05:19:40.821Z,12.18
2023-05-01T05:22:08.321Z,6.70
2023-05-01T05:24:35.817Z,8.85
2023-05-01T05:27:04.057Z,9.18
2023-05-01T05:29:32.861Z,7.80
2023-05-01T05:32:00.470Z,7.20
2023-05-01T05:34:29.300Z,6.47
2023-05-01T05:36:56.831Z,6.90
2023-05-01T05:39:24.653Z,5.40
2023-05-01T05:41:53.791Z,7.50
2023-05-01T05:44:21.413Z,5.47
2023-05-01T05:46:48.936Z,6.10
2023-05-01T05:49:16.437Z,6.07
2023-05-01T05:51:45.355Z,5.68
2023-05-01T05:54:12.862Z,5.30
2023-05-01T05:56:40.345Z,5.63
2023-05-01T05:59:07.980Z,5.38
2023-05-01T06:01:37.234Z,5.60
2023-05-01T06:04:04.908Z,6.30
2023-05-01T06:06:32.959Z,5.38
2023-05-01T06:09:03.307Z,6.65
2023-05-01T06:11:30.826Z,6.47
2023-05-01T06:13:58.333Z,5.45
2023-05-01T06:16:26.014Z,6.78
2023-05-01T06:18:53.551Z,5.78
2023-05-01T06:21:21.287Z,5.57
2023-05-01T06:23:48.863Z,6.00
2023-05-01T06:26:17.634Z,6.00
2023-05-01T06:28:45.215Z,6.20
2023-05-01T06:31:12.746Z,5.57
2023-05-01T06:33:40.284Z,6.35
2023-05-01T06:36:08.259Z,7.00
2023-05-01T06:38:35.786Z,8.80
2023-05-01T06:41:03.294Z,9.65
2023-05-01T06:43:32.572Z,7.53
2023-05-01T06:46:00.278Z,7.22
2023-05-01T06:48:27.803Z,7.95
2023-05-01T06:50:56.627Z,8.30
2023-05-01T06:53:24.115Z,9.65
2023-05-01T06:55:51.686Z,7.13
2023-05-01T06:58:23.887Z,9.13
2023-05-01T07:00:54.419Z,8.68
2023-05-01T07:03:22.243Z,8.05
2023-05-01T07:05:49.782Z,9.05
2023-05-01T07:08:17.283Z,10.00
2023-05-01T07:10:44.893Z,8.30
2023-05-01T07:13:12.538Z,8.25
2023-05-01T07:15:40.020Z,8.48
2023-05-01T07:18:09.034Z,10.07
2023-05-01T07:20:36.826Z,10.88
2023-05-01T07:23:07.176Z,13.93
2023-05-01T07:25:36.184Z,11.88
2023-05-01T07:28:04.629Z,12.82
2023-05-01T07:30:33.157Z,13.52
2023-05-01T07:33:00.762Z,15.80
2023-05-01T07:35:29.822Z,13.30
2023-05-01T07:37:57.301Z,14.25
2023-05-01T07:40:25.005Z,12.55
2023-05-01T07:42:54.388Z,14.13
2023-05-01T07:45:22.183Z,20.20
2023-05-01T07:47:50.046Z,16.75
2023-05-01T07:50:18.002Z,15.38
2023-05-01T07:52:46.864Z,13.38
2023-05-01T07:55:14.415Z,13.88
2023-05-01T07:57:42.079Z,16.58
2023-05-01T08:00:10.638Z,13.57
2023-05-01T08:02:38.264Z,13.55
2023-05-01T08:05:06.706Z,12.75
2023-05-01T08:07:34.343Z,11.30
2023-05-01T08:10:03.316Z,13.15
2023-05-01T08:12:31.968Z,10.23
2023-05-01T08:14:59.516Z,10.05
2023-05-01T08:17:27.148Z,10.18
2023-05-01T08:19:56.641Z,24.23
2023-05-01T08:22:24.471Z,13.32
2023-05-01T08:24:52.011Z,10.68
2023-05-01T08:27:21.046Z,8.90
2023-05-01T08:29:52.447Z,8.20
2023-05-01T08:32:20.012Z,7.78
2023-05-01T08:34:47.592Z,9.45
2023-05-01T08:37:19.017Z,8.48
2023-05-01T08:39:46.554Z,7.60
2023-05-01T08:42:14.576Z,7.05
2023-05-01T08:44:43.454Z,6.57
2023-05-01T08:47:15.694Z,6.28
2023-05-01T08:49:44.145Z,31.33
2023-05-01T08:52:12.558Z,8.60
2023-05-01T08:54:43.083Z,5.93
2023-05-01T08:57:13.780Z,5.63
2023-05-01T08:59:43.093Z,6.40
2023-05-01T09:02:11.255Z,12.75
2023-05-01T09:04:40.556Z,6.63
2023-05-01T09:07:08.445Z,5.50
2023-05-01T09:09:36.682Z,5.50
2023-05-01T09:12:10.471Z,6.05
2023-05-01T09:14:38.008Z,6.10
2023-05-01T09:17:06.858Z,5.70
2023-05-01T09:19:34.387Z,5.70
2023-05-01T09:22:01.903Z,5.07
2023-05-01T09:24:29.394Z,4.78
2023-05-01T09:26:58.147Z,4.15
2023-05-01T09:29:38.674Z,4.40
2023-05-01T09:32:19.187Z,3.55
2023-05-01T09:34:47.310Z,4.60
2023-05-01T09:37:27.183Z,4.53
2023-05-01T09:40:05.588Z,4.70
2023-05-01T09:42:34.114Z,4.72
2023-05-01T09:45:02.016Z,15.15
2023-05-01T09:47:31.522Z,15.75
2023-05-01T09:50:00.539Z,15.65
2023-05-01T09:52:28.859Z,38.55
2023-05-01T09:55:16.385Z,72.43
2023-05-01T09:57:45.386Z,21.98
2023-05-01T10:00:15.518Z,56.80
2023-05-01T10:02:47.990Z,91.43
2023-05-01T10:05:16.279Z,29.60
2023-05-01T10:07:57.202Z,16.77
2023-05-01T10:10:25.015Z,20.13
2023-05-01T10:12:52.503Z,20.35
2023-05-01T10:15:26.095Z,12.70
2023-05-01T10:17:56.839Z,8.40
2023-05-01T10:20:24.407Z,6.38
2023-05-01T10:22:51.940Z,5.30
2023-05-01T10:25:20.482Z,6.10
2023-05-01T10:27:48.450Z,6.30
2023-05-01T10:30:16.461Z,5.85
2023-05-01T10:32:44.130Z,5.47
2023-05-01T10:35:16.510Z,5.20
2023-05-01T10:40:45.347Z,4.35
2023-05-01T10:43:17.405Z,5.15
2023-05-01T10:45:45.501Z,4.80
2023-05-01T10:48:13.012Z,4.53
2023-05-01T10:51:12.934Z,4.25
2023-05-01T10:53:41.293Z,5.13
2023-05-01T10:56:43.856Z,5.15
2023-05-01T10:59:12.929Z,4.55
2023-05-01T11:01:44.671Z,4.88
2023-05-01T11:04:50.766Z,3.83
2023-05-01T11:07:19.553Z,3.78
2023-05-01T11:09:49.174Z,4.68
2023-05-01T11:12:54.217Z,4.03
2023-05-01T11:15:32.419Z,3.78
2023-05-01T11:18:00.714Z,4.40
2023-05-01T11:20:54.530Z,3.92
2023-05-01T11:23:28.008Z,3.75
2023-05-01T11:26:04.604Z,4.07
2023-05-01T11:28:34.870Z,3.55
2023-05-01T11:31:03.306Z,3.38
2023-05-01T11:33:31.804Z,3.22
2023-05-01T11:36:01.104Z,3.85
2023-05-01T11:38:28.690Z,3.50
2023-05-01T11:40:59.494Z,3.42
2023-05-01T11:43:27.366Z,3.08
2023-05-01T11:46:02.258Z,3.20
2023-05-01T11:48:31.196Z,3.03
2023-05-01T11:50:58.749Z,2.63
2023-05-01T11:53:26.322Z,3.67
2023-05-01T11:55:54.467Z,3.17
2023-05-01T11:58:32.994Z,4.28
2023-05-01T12:01:01.827Z,3.53
2023-05-01T12:03:29.803Z,3.47
2023-05-01T12:05:57.432Z,3.63
2023-05-01T12:08:25.411Z,3.28
2023-05-01T12:10:53.830Z,4.43
2023-05-01T12:13:21.747Z,3.58
2023-05-01T12:15:52.447Z,3.90
2023-05-01T12:18:22.362Z,3.17
2023-05-01T12:20:52.059Z,3.38
2023-05-01T12:23:20.702Z,2.95
2023-05-01T12:25:48.208Z,2.40
2023-05-01T12:28:18.133Z,3.00
2023-05-01T12:30:46.408Z,3.00
2023-05-01T12:33:15.142Z,3.20
2023-05-01T12:35:46.570Z,3.20
2023-05-01T12:38:15.685Z,3.20
2023-05-01T12:40:53.343Z,2.80
2023-05-01T12:43:21.538Z,2.72
2023-05-01T12:45:52.954Z,2.90
2023-05-01T12:48:22.373Z,3.72
2023-05-01T12:50:54.601Z,3.80
2023-05-01T12:53:23.185Z,2.90
2023-05-01T12:55:51.762Z,2.90
2023-05-01T12:58:19.485Z,4.05
2023-05-01T13:00:49.153Z,3.20
2023-05-01T13:03:18.173Z,3.10
2023-05-01T13:05:57.972Z,2.60
2023-05-01T13:08:31.177Z,2.83
2023-05-01T13:11:00.413Z,3.22
2023-05-01T13:13:29.235Z,2.72
2023-05-01T13:16:05.942Z,2.55
2023-05-01T13:18:34.161Z,2.60
2023-05-01T13:21:10.849Z,2.28
2023-05-01T13:23:39.015Z,2.45
2023-05-01T13:26:07.391Z,2.53
2023-05-01T13:28:36.252Z,2.78
2023-05-01T13:31:04.290Z,2.38
2023-05-01T13:33:32.537Z,2.17
2023-05-01T13:36:00.808Z,2.50
2023-05-01T13:38:31.594Z,2.40
2023-05-01T13:40:59.109Z,2.40
2023-05-01T13:43:26.825Z,2.38
2023-05-01T13:45:58.955Z,2.22
2023-05-01T13:48:26.504Z,2.50
2023-05-01T13:50:53.974Z,1.98
2023-05-01T13:53:21.846Z,2.17
2023-05-01T13:55:50.650Z,2.38
2023-05-01T13:58:18.163Z,2.22
2023-05-01T14:00:45.794Z,1.95
2023-05-01T14:03:13.701Z,2.47
2023-05-01T14:05:41.238Z,2.40
2023-05-01T14:08:10.806Z,2.40
2023-05-01T14:10:38.437Z,1.90
2023-05-01T14:13:07.728Z,2.10
2023-05-01T14:15:35.271Z,1.85
2023-05-01T14:18:06.740Z,2.25
2023-05-01T14:20:34.339Z,1.85
2023-05-01T14:23:01.935Z,2.20
2023-05-01T14:25:31.272Z,2.05
2023-05-01T14:28:00.831Z,2.42
2023-05-01T14:30:33.452Z,2.20
2023-05-01T14:33:03.279Z,2.20
2023-05-01T14:35:31.171Z,2.10
2023-05-01T14:38:12.910Z,1.98
2023-05-01T14:40:41.774Z,2.22
2023-05-01T14:43:10.420Z,2.13
2023-05-01T14:45:41.846Z,2.10
2023-05-01T14:48:09.853Z,1.80
2023-05-01T14:50:37.897Z,2.00
2023-05-01T14:53:05.854Z,1.90
2023-05-01T14:55:34.739Z,2.03
2023-05-01T14:58:02.530Z,1.92
2023-05-01T15:00:30.022Z,2.50
2023-05-01T15:02:59.402Z,2.15
2023-05-01T15:05:28.346Z,1.83
2023-05-01T15:07:57.307Z,2.50
2023-05-01T15:10:24.818Z,1.95
2023-05-01T15:12:52.342Z,1.90
2023-05-01T15:15:19.946Z,2.22
2023-05-01T15:17:47.511Z,2.08
2023-05-01T15:20:16.652Z,2.20
2023-05-01T15:22:44.232Z,3.58
2023-05-01T15:25:11.867Z,3.30
2023-05-01T15:27:39.373Z,2.80
2023-05-01T15:30:10.165Z,3.05
2023-05-01T15:32:38.455Z,2.75
2023-05-01T15:35:06.446Z,3.25
2023-05-01T15:37:35.303Z,2.40
2023-05-01T15:40:04.297Z,3.05
2023-05-01T15:42:31.861Z,2.90
2023-05-01T15:45:00.185Z,2.60
2023-05-01T15:47:28.303Z,2.42
2023-05-01T15:49:56.100Z,2.78
2023-05-01T15:52:25.105Z,2.70
2023-05-01T15:54:54.922Z,2.72
2023-05-01T15:57:22.478Z,2.92
2023-05-01T15:59:53.774Z,2.78
2023-05-01T16:02:21.762Z,2.80
2023-05-01T16:04:49.649Z,2.35
2023-05-01T16:07:17.181Z,2.92
2023-05-01T16:09:44.842Z,2.78
2023-05-01T16:12:14.030Z,2.60
2023-05-01T16:14:42.090Z,3.20
2023-05-01T16:17:10.091Z,2.80
2023-05-01T16:19:37.626Z,2.30
2023-05-01T16:22:06.899Z,3.25
2023-05-01T16:24:34.541Z,3.08
2023-05-01T16:27:02.038Z,2.42
2023-05-01T16:29:33.205Z,2.40
2023-05-01T16:32:01.023Z,2.27
2023-05-01T16:34:29.010Z,3.00
2023-05-01T16:36:56.654Z,3.58
2023-05-01T16:39:24.329Z,2.80
2023-05-01T16:41:53.434Z,3.47
2023-05-01T16:44:22.149Z,3.70
2023-05-01T16:46:53.672Z,3.00
2023-05-01T16:49:21.856Z,2.90
2023-05-01T16:51:49.621Z,2.53
2023-05-01T16:54:17.336Z,2.65
2023-05-01T16:56:44.838Z,2.55
2023-05-01T16:59:12.343Z,2.60
2023-05-01T17:01:39.890Z,2.28
2023-05-01T17:04:09.925Z,2.50
2023-05-01T17:06:37.452Z,2.42
2023-05-01T17:09:04.971Z,2.85
2023-05-01T17:11:32.438Z,3.55
2023-05-01T17:13:59.957Z,4.25
2023-05-01T17:16:27.601Z,3.45
2023-05-01T17:18:55.232Z,3.42
2023-05-01T17:21:25.093Z,3.60
2023-05-01T17:23:52.715Z,4.05
2023-05-01T17:26:20.181Z,2.90
2023-05-01T17:28:49.043Z,2.60
2023-05-01T17:31:18.257Z,2.60
2023-05-01T17:33:46.824Z,2.92
2023-05-01T17:36:14.389Z,4.38
2023-05-01T17:38:43.219Z,2.92
2023-05-01T17:41:10.686Z,3.60
2023-05-01T17:43:38.418Z,3.95
2023-05-01T17:46:06.870Z,3.45
2023-05-01T17:48:34.371Z,2.75
2023-05-01T17:51:01.856Z,3.45
2023-05-01T17:53:29.360Z,3.45
2023-05-01T17:55:58.292Z,3.30
2023-05-01T17:58:25.814Z,2.67
2023-05-01T18:00:55.433Z,2.85
2023-05-01T18:03:24.069Z,2.58
2023-05-01T18:05:51.622Z,2.53
2023-05-01T18:08:19.127Z,2.58
2023-05-01T18:10:46.609Z,2.80
2023-05-01T18:13:16.730Z,3.60
2023-05-01T18:15:44.312Z,2.72
2023-05-01T18:18:12.488Z,2.50
2023-05-01T18:20:40.355Z,3.00
2023-05-01T18:23:07.914Z,2.38
2023-05-01T18:25:35.565Z,3.00
2023-05-01T18:28:03.076Z,2.65
2023-05-01T18:30:31.901Z,4.00
2023-05-01T18:32:59.475Z,2.60
2023-05-01T18:35:26.953Z,2.83
2023-05-01T18:37:54.841Z,3.47
2023-05-01T18:40:22.327Z,4.60
2023-05-01T18:42:49.816Z,4.10
2023-05-01T18:45:17.593Z,3.42
2023-05-01T18:47:46.505Z,3.72
2023-05-01T18:50:14.203Z,3.50
2023-05-01T18:52:42.703Z,3.30
2023-05-01T18:55:11.279Z,3.03
2023-05-01T18:57:41.924Z,3.03
2023-05-01T19:00:10.575Z,3.50
2023-05-01T19:02:38.090Z,3.30
2023-05-01T19:05:08.446Z,3.03
2023-05-01T19:07:36.007Z,3.15
2023-05-01T19:10:03.725Z,3.67
2023-05-01T19:12:31.228Z,3.05
2023-05-01T19:14:58.710Z,3.60
2023-05-01T19:17:27.709Z,4.75
2023-05-01T19:19:55.318Z,4.25
2023-05-01T19:22:24.202Z,3.92
2023-05-01T19:24:51.714Z,3.38
2023-05-01T19:27:19.246Z,3.88
2023-05-01T19:29:46.727Z,3.20
2023-05-01T19:32:14.436Z,3.67
2023-05-01T19:34:42.534Z,3.33
2023-05-01T19:37:10.073Z,3.45
2023-05-01T19:39:39.751Z,3.15
2023-05-01T19:42:07.361Z,3.67
2023-05-01T19:44:34.905Z,3.47
2023-05-01T19:47:02.451Z,3.45
2023-05-01T19:49:29.963Z,3.70
2023-05-01T19:51:57.616Z,3.65
2023-05-01T19:54:26.975Z,3.42
2023-05-01T19:56:55.961Z,4.00
2023-05-01T19:59:23.621Z,3.35
2023-05-01T20:01:51.628Z,3.63
2023-05-01T20:04:19.414Z,3.88
2023-05-01T20:06:47.028Z,4.10
2023-05-01T20:09:14.675Z,3.47
2023-05-01T20:11:42.175Z,4.03
2023-05-01T20:14:11.165Z,4.10
2023-05-01T20:16:38.774Z,3.58
2023-05-01T20:19:06.346Z,4.10
2023-05-01T20:21:33.920Z,4.82
2023-05-01T20:24:01.418Z,3.83
2023-05-01T20:26:28.980Z,3.58
2023-05-01T20:28:56.720Z,3.80
2023-05-01T20:31:25.604Z,3.95
2023-05-01T20:33:53.202Z,3.40
2023-05-01T20:36:20.717Z,3.30
2023-05-01T20:38:48.646Z,3.92
2023-05-01T20:41:16.151Z,3.65
2023-05-01T20:43:43.635Z,3.63
2023-05-01T20:46:11.183Z,3.33
2023-05-01T20:48:40.249Z,3.30
2023-05-01T20:51:07.728Z,3.60
2023-05-01T20:53:35.235Z,3.17
2023-05-01T20:56:02.731Z,3.70
2023-05-01T20:58:30.392Z,3.38
2023-05-01T21:00:59.166Z,3.60
2023-05-01T21:03:26.866Z,3.85
2023-05-01T21:05:59.682Z,3.95
2023-05-01T21:08:28.188Z,5.00
2023-05-01T21:10:55.903Z,4.70
2023-05-01T21:13:24.964Z,4.78
2023-05-01T21:15:52.984Z,4.30
2023-05-01T21:18:21.475Z,4.72
2023-05-01T21:20:48.995Z,4.68
2023-05-01T21:23:18.604Z,5.38
2023-05-01T21:25:46.126Z,5.00
2023-05-01T21:28:14.579Z,5.05
2023-05-01T21:30:42.266Z,4.85
2023-05-01T21:33:14.469Z,4.70
2023-05-01T21:35:43.123Z,4.63
2023-05-01T21:38:11.006Z,4.90
2023-05-01T21:40:42.347Z,5.22
2023-05-01T21:43:10.747Z,4.63
2023-05-01T21:45:41.084Z,4.50
2023-05-01T21:48:09.142Z,4.90
2023-05-01T21:50:38.017Z,4.88
2023-05-01T21:53:07.234Z,4.53
2023-05-01T21:55:34.897Z,4.85
2023-05-01T21:58:04.025Z,5.07
2023-05-01T22:00:31.757Z,4.70
2023-05-01T22:02:59.381Z,4.78
2023-05-01T22:05:30.795Z,4.80
2023-05-01T22:07:58.645Z,4.97
2023-05-01T22:10:26.295Z,4.45
2023-05-01T22:12:53.838Z,4.55
2023-05-01T22:15:22.631Z,4.53
2023-05-01T22:17:50.187Z,4.72
2023-05-01T22:20:17.804Z,4.53
2023-05-01T22:22:45.983Z,4.25
2023-05-01T22:25:13.526Z,4.80
2023-05-01T22:27:41.742Z,5.30
2023-05-01T22:30:10.241Z,4.88
2023-05-01T22:32:39.235Z,5.07
2023-05-01T22:35:08.402Z,4.82
2023-05-01T22:37:35.976Z,5.35
2023-05-01T22:40:04.109Z,4.88
2023-05-01T22:42:31.754Z,4.38
2023-05-01T22:44:59.265Z,5.32
2023-05-01T22:47:26.855Z,5.53
2023-05-01T22:49:55.663Z,4.75
2023-05-01T22:52:23.268Z,5.65
2023-05-01T22:54:52.507Z,4.63
2023-05-01T22:57:20.012Z,4.88
2023-05-01T22:59:48.165Z,3.92
2023-05-01T23:02:17.373Z,4.60
2023-05-01T23:04:45.145Z,4.50
2023-05-01T23:07:15.842Z,4.53
2023-05-01T23:09:43.328Z,4.07
2023-05-01T23:12:16.378Z,3.80
2023-05-01T23:14:46.375Z,3.42
2023-05-01T23:17:14.212Z,3.80
2023-05-01T23:19:43.342Z,3.20
2023-05-01T23:22:12.988Z,3.15
2023-05-01T23:24:44.792Z,3.00
2023-05-01T23:27:13.406Z,3.47
2023-05-01T23:29:41.207Z,2.83
2023-05-01T23:32:09.930Z,3.13
2023-05-01T23:34:37.966Z,2.78
2023-05-01T23:37:06.469Z,2.47
2023-05-01T23:39:33.965Z,2.80
2023-05-01T23:42:03.303Z,3.10
2023-05-01T23:44:30.960Z,2.95
2023-05-01T23:46:58.498Z,2.55
2023-05-01T23:49:26.056Z,2.83
2023-05-01T23:51:53.596Z,3.20
2023-05-01T23:54:21.082Z,3.15
2023-05-01T23:56:48.590Z,2.80
2023-05-01T23:59:17.393Z,2.55
